createdAt,value
2023-05-05T00:02:48.428Z,101132.38
2023-05-05T00:07:51.010Z,101124.59
2023-05-05T00:12:54.921Z,101120.22
2023-05-05T00:17:57.577Z,101111.34
2023-05-05T00:23:00.174Z,101133.06
2023-05-05T00:28:04.082Z,101125.16
2023-05-05T00:33:07.490Z,101121.91
2023-05-05T00:38:10.178Z,101116.16
2023-05-05T00:43:14.074Z,101118.28
2023-05-05T00:48:18.809Z,101106.44
2023-05-05T00:53:21.356Z,101107.09
2023-05-05T00:58:25.514Z,101112.00
2023-05-05T01:03:28.731Z,101114.81
2023-05-05T01:08:45.090Z,101121.72
2023-05-05T01:13:59.148Z,101121.84
2023-05-05T01:19:13.431Z,101122.94
2023-05-05T01:24:37.163Z,101130.03
2023-05-05T01:30:01.894Z,101089.09
2023-05-05T01:35:13.285Z,101131.53
2023-05-05T01:40:20.764Z,101120.16
2023-05-05T01:45:27.315Z,101130.56
2023-05-05T01:50:32.858Z,101135.44
2023-05-05T01:55:37.434Z,101111.88
2023-05-05T02:00:40.760Z,101139.56
2023-05-05T02:05:45.410Z,101147.63
2023-05-05T02:10:49.277Z,101148.44
2023-05-05T02:15:53.326Z,101155.84
2023-05-05T02:20:57.295Z,101151.63
2023-05-05T02:26:05.657Z,101165.19
2023-05-05T02:31:10.571Z,101167.16
2023-05-05T02:36:18.778Z,101172.50
2023-05-05T02:41:34.621Z,101176.34
2023-05-05T02:46:43.424Z,101180.13
2023-05-05T02:51:47.684Z,101178.53
2023-05-05T02:56:58.680Z,101180.63
2023-05-05T03:02:11.757Z,101181.56
2023-05-05T03:07:24.629Z,101180.59
2023-05-05T03:12:31.392Z,101179.47
2023-05-05T03:17:49.896Z,101160.56
2023-05-05T03:22:54.748Z,101173.50
2023-05-05T03:27:57.561Z,101188.44
2023-05-05T03:33:00.388Z,101185.41
2023-05-05T03:38:05.554Z,101184.56
2023-05-05T03:43:09.003Z,101178.66
2023-05-05T03:48:11.728Z,101181.97
2023-05-05T03:53:17.432Z,101175.75
2023-05-05T03:58:20.834Z,101200.19
2023-05-05T04:03:24.480Z,101208.94
2023-05-05T04:08:28.717Z,101212.91
2023-05-05T04:13:31.772Z,101220.47
2023-05-05T04:18:55.295Z,101229.53
2023-05-05T04:24:22.934Z,101223.59
2023-05-05T04:29:45.742Z,101240.75
2023-05-05T04:35:09.225Z,101248.50
2023-05-05T04:40:33.176Z,101243.38
2023-05-05T04:45:53.544Z,101246.72
2023-05-05T04:50:58.259Z,101261.31
2023-05-05T04:56:02.570Z,101255.97
2023-05-05T05:01:05.463Z,101255.97
2023-05-05T05:06:08.122Z,101259.69
2023-05-05T05:11:13.498Z,101248.47
2023-05-05T05:16:17.541Z,101271.59
2023-05-05T05:21:20.585Z,101275.03
2023-05-05T05:26:24.538Z,101285.59
2023-05-05T05:31:27.943Z,101281.28
2023-05-05T05:36:31.604Z,101288.88
2023-05-05T05:41:36.430Z,101301.75
2023-05-05T05:46:39.346Z,101290.63
2023-05-05T05:51:42.246Z,101284.66
2023-05-05T05:56:46.330Z,101291.50
2023-05-05T06:01:48.953Z,101292.25
2023-05-05T06:06:52.115Z,101294.13
2023-05-05T06:11:56.402Z,101291.88
2023-05-05T06:16:58.990Z,101294.56
2023-05-05T06:22:04.114Z,101290.59
2023-05-05T06:27:08.000Z,101296.06
2023-05-05T06:32:12.232Z,101296.88
2023-05-05T06:37:14.836Z,101296.84
2023-05-05T06:42:18.728Z,101314.94
2023-05-05T06:47:22.048Z,101319.25
2023-05-05T06:52:24.636Z,101341.03
2023-05-05T06:57:28.716Z,101342.81
2023-05-05T07:02:31.464Z,101341.00
2023-05-05T07:07:34.033Z,101349.16
2023-05-05T07:12:38.379Z,101349.44
2023-05-05T07:17:41.256Z,101349.84
2023-05-05T07:22:43.823Z,101346.28
2023-05-05T07:27:47.755Z,101351.00
2023-05-05T07:32:51.030Z,101351.94
2023-05-05T07:37:53.596Z,101350.09
2023-05-05T07:42:58.348Z,101351.81
2023-05-05T07:48:01.223Z,101361.84
2023-05-05T07:53:13.600Z,101368.78
2023-05-05T07:58:19.104Z,101366.81
2023-05-05T08:03:24.293Z,101364.88
2023-05-05T08:08:27.478Z,101362.59
2023-05-05T08:13:31.715Z,101362.59
2023-05-05T08:18:37.356Z,101362.88
2023-05-05T08:23:40.287Z,101365.44
2023-05-05T08:28:44.158Z,101366.16
2023-05-05T08:33:47.353Z,101371.81
2023-05-05T08:38:49.943Z,101364.50
2023-05-05T08:43:53.904Z,101372.56
2023-05-05T08:48:57.210Z,101370.59
2023-05-05T08:54:04.053Z,101371.72
2023-05-05T08:59:09.512Z,101369.19
2023-05-05T09:04:12.125Z,101368.34
2023-05-05T09:09:18.175Z,101368.88
2023-05-05T09:14:22.046Z,101376.22
2023-05-05T09:19:24.598Z,101301.41
2023-05-05T09:24:27.138Z,101378.16
2023-05-05T09:29:31.086Z,101383.88
2023-05-05T09:34:35.032Z,101380.16
2023-05-05T09:39:37.693Z,101379.28
2023-05-05T09:44:41.897Z,101371.81
2023-05-05T09:49:44.509Z,101386.03
2023-05-05T09:54:54.907Z,101385.03
2023-05-05T10:00:01.206Z,101366.25
2023-05-05T10:05:09.374Z,101366.66
2023-05-05T10:10:14.332Z,101363.66
2023-05-05T10:15:19.442Z,101361.97
2023-05-05T10:20:23.624Z,101366.19
2023-05-05T10:25:30.973Z,101357.97
2023-05-05T10:30:42.859Z,101356.75
2023-05-05T10:35:47.400Z,101350.34
2023-05-05T10:40:51.271Z,101350.13
2023-05-05T10:45:56.146Z,101340.59
2023-05-05T10:51:07.740Z,101337.59
2023-05-05T10:56:18.177Z,101323.66
2023-05-05T11:01:33.881Z,101319.97
2023-05-05T11:06:36.597Z,101316.50
2023-05-05T11:12:03.394Z,101304.25
2023-05-05T11:17:45.078Z,101305.31
2023-05-05T11:23:22.463Z,101298.00
2023-05-05T11:28:29.967Z,101291.28
2023-05-05T11:33:36.980Z,101284.13
2023-05-05T11:38:48.439Z,101289.88
2023-05-05T11:43:51.149Z,101276.94
2023-05-05T11:48:55.004Z,101285.38
2023-05-05T11:53:59.059Z,101275.25
2023-05-05T11:59:10.358Z,101282.25
2023-05-05T12:04:15.068Z,101281.47
2023-05-05T12:09:19.105Z,101305.78
2023-05-05T12:14:22.414Z,101304.19
2023-05-05T12:19:29.874Z,101298.56
2023-05-05T12:24:32.435Z,101305.16
2023-05-05T12:29:35.227Z,101310.63
2023-05-05T12:34:39.172Z,101306.06
2023-05-05T12:39:41.705Z,101310.53
2023-05-05T12:44:44.818Z,101302.44
2023-05-05T12:49:50.645Z,101292.38
2023-05-05T12:54:57.505Z,101302.00
2023-05-05T13:00:13.476Z,101306.09
2023-05-05T13:05:29.912Z,101291.78
2023-05-05T13:10:32.518Z,101295.91
2023-05-05T13:15:35.145Z,101303.97
2023-05-05T13:20:39.048Z,101316.19
2023-05-05T13:25:41.875Z,101317.31
2023-05-05T13:30:44.434Z,101308.69
2023-05-05T13:35:48.373Z,101315.25
2023-05-05T13:40:51.113Z,101296.38
2023-05-05T13:45:55.072Z,101296.47
2023-05-05T13:51:01.000Z,101294.78
2023-05-05T13:56:04.051Z,101306.88
2023-05-05T14:01:06.775Z,101311.16
2023-05-05T14:06:10.831Z,101319.72
2023-05-05T14:11:13.721Z,101324.53
2023-05-05T14:16:16.488Z,101374.19
2023-05-05T14:21:20.425Z,101386.13
2023-05-05T14:26:22.961Z,101383.50
2023-05-05T14:31:25.588Z,101362.53
2023-05-05T14:36:29.553Z,101357.81
2023-05-05T14:41:32.084Z,101353.41
2023-05-05T14:46:34.954Z,101368.81
2023-05-05T14:51:38.833Z,101365.78
2023-05-05T14:56:41.825Z,101353.03
2023-05-05T15:01:44.445Z,101347.56
2023-05-05T15:06:48.426Z,101360.19
2023-05-05T15:11:51.385Z,101368.81
2023-05-05T15:16:54.044Z,101359.34
2023-05-05T15:21:58.023Z,101361.28
2023-05-05T15:27:01.478Z,101356.84
2023-05-05T15:32:04.101Z,101377.06
2023-05-05T15:37:08.291Z,101375.25
2023-05-05T15:42:10.832Z,101372.06
2023-05-05T15:47:13.579Z,101357.28
2023-05-05T15:52:17.630Z,101357.41
2023-05-05T15:57:20.322Z,101353.03
2023-05-05T16:02:23.030Z,101345.66
2023-05-05T16:07:26.954Z,101341.03
2023-05-05T16:12:29.506Z,101340.66
2023-05-05T16:17:32.289Z,101328.16
2023-05-05T16:22:36.809Z,101328.72
2023-05-05T16:27:39.555Z,101332.44
2023-05-05T16:32:42.261Z,101314.22
2023-05-05T16:37:46.258Z,101328.75
2023-05-05T16:42:48.794Z,101325.00
2023-05-05T16:47:51.474Z,101324.78
2023-05-05T16:52:55.502Z,101323.81
2023-05-05T16:57:58.124Z,101329.47
2023-05-05T17:03:00.709Z,101331.81
2023-05-05T17:08:04.923Z,101328.78
2023-05-05T17:13:08.250Z,101332.81
2023-05-05T17:18:11.113Z,101333.25
2023-05-05T17:23:16.531Z,101337.28
2023-05-05T17:28:19.188Z,101343.22
2023-05-05T17:33:22.042Z,101351.31
2023-05-05T17:38:26.040Z,101331.91
2023-05-05T17:43:29.060Z,101355.44
2023-05-05T17:48:31.670Z,101348.19
2023-05-05T17:53:35.916Z,101337.75
2023-05-05T17:58:38.504Z,101339.44
2023-05-05T18:03:41.277Z,101350.09
2023-05-05T18:08:45.642Z,101349.63
2023-05-05T18:13:48.204Z,101340.75
2023-05-05T18:18:50.778Z,101348.38
2023-05-05T18:24:01.756Z,101350.44
2023-05-05T18:29:10.616Z,101360.16
2023-05-05T18:34:13.568Z,101334.81
2023-05-05T18:39:18.333Z,101358.34
2023-05-05T18:44:21.015Z,101347.41
2023-05-05T18:49:24.660Z,101357.50
2023-05-05T18:54:28.823Z,101358.09
2023-05-05T18:59:31.566Z,101358.47
2023-05-05T19:04:37.276Z,101353.00
2023-05-05T19:09:41.165Z,101347.03
2023-05-05T19:14:43.768Z,101350.19
2023-05-05T19:19:46.324Z,101374.91
2023-05-05T19:24:50.384Z,101388.56
2023-05-05T19:29:53.210Z,101389.34
2023-05-05T19:34:55.769Z,101388.50
2023-05-05T19:39:59.645Z,101403.28
2023-05-05T19:45:02.658Z,101407.34
2023-05-05T19:50:05.888Z,101396.38
2023-05-05T19:55:12.826Z,101397.81
2023-05-05T20:00:16.141Z,101413.75
2023-05-05T20:05:18.691Z,101411.75
2023-05-05T20:10:22.566Z,101397.44
2023-05-05T20:15:25.269Z,101396.84
2023-05-05T20:20:28.126Z,101394.09
2023-05-05T20:25:32.045Z,101382.00
2023-05-05T20:30:35.191Z,101385.63
2023-05-05T20:35:37.802Z,101391.19
2023-05-05T20:40:42.062Z,101395.78
2023-05-05T20:45:46.194Z,101393.22
2023-05-05T20:50:48.762Z,101391.81
2023-05-05T20:55:52.646Z,101398.97
2023-05-05T21:00:55.218Z,101391.56
2023-05-05T21:05:58.236Z,101393.44
2023-05-05T21:11:02.105Z,101370.47
2023-05-05T21:16:05.028Z,101403.31
2023-05-05T21:21:07.669Z,101393.44
2023-05-05T21:26:11.714Z,101399.69
2023-05-05T21:31:21.925Z,101398.34
2023-05-05T21:36:25.067Z,101386.81
2023-05-05T21:41:28.995Z,101387.94
2023-05-05T21:46:31.611Z,101401.56
2023-05-05T21:51:34.821Z,101396.50
2023-05-05T21:56:39.136Z,101377.44
2023-05-05T22:01:41.692Z,101382.03
2023-05-05T22:06:44.267Z,101389.91
2023-05-05T22:11:48.229Z,101372.00
2023-05-05T22:16:50.995Z,101391.94
2023-05-05T22:21:53.517Z,101401.22
2023-05-05T22:26:58.103Z,101400.44
2023-05-05T22:32:00.688Z,101394.13
2023-05-05T22:37:03.219Z,101395.03
2023-05-05T22:42:07.133Z,101399.53
2023-05-05T22:47:09.790Z,101402.38
2023-05-05T22:52:12.431Z,101393.56
2023-05-05T22:57:16.370Z,101396.41
2023-05-05T23:02:19.036Z,101387.06
2023-05-05T23:07:21.838Z,101373.56
2023-05-05T23:12:25.793Z,101387.34
2023-05-05T23:17:28.372Z,101398.00
2023-05-05T23:22:30.979Z,101392.47
2023-05-05T23:27:34.974Z,101384.22
2023-05-05T23:32:37.801Z,101390.13
2023-05-05T23:37:40.404Z,101391.13
2023-05-05T23:42:44.368Z,101391.06
2023-05-05T23:47:46.985Z,101393.59
2023-05-05T23:52:49.524Z,101391.50
2023-05-05T23:57:53.787Z,101377.13
